Time;durP1;ratioP1;P1;durP2;ratioP2;P2;SDS_P1;SDS_P2;PMS_P1;PMS_P2;Temp;Humidity;BMP_temperature;BMP_pressure;BME280_temperature;BME280_humidity;BME280_pressure;Samples;Min_cycle;Max_cycle;Signal;HPM_P1;HPM_P2
2022/09/03 00:01:53;;;;;;;;;;;;;;;;;;4930452;29;1072;-74
2022/09/03 00:04:22;;;;;;;;;;;;;;;;;;4930997;28;1421;-73
2022/09/03 00:06:48;;;;;;;;;;;;;;;;;;4930888;29;1123;-74
2022/09/03 00:09:15;;;;;;;;;;;;;;;;;;4933684;29;989;-73
2022/09/03 00:11:48;;;;;;;;;;;;;;;;;;4933925;28;1060;-74
2022/09/03 00:14:15;;;;;;;;;;;;;;;;;;4934010;29;1393;-74
2022/09/03 00:16:43;;;;;;;;;;;;;;;;;;4933462;28;1001;-74
2022/09/03 00:19:09;;;;;;;;;;;;;;;;;;4934323;28;712;-74
2022/09/03 00:21:37;;;;;;;;;;;;;;;;;;4933499;28;2032;-73
2022/09/03 00:24:03;;;;;;;;;;;;;;;;;;4934060;28;1383;-74
2022/09/03 00:26:30;;;;;;;;;;;;;;;;;;4916741;29;1117;-74
2022/09/03 00:28:59;;;;;;;;;;;;;;;;;;4916883;28;1140;-75
2022/09/03 00:31:27;;;;;;;;;;;;;;;;;;4916576;29;1411;-74
2022/09/03 00:33:55;;;;;;;;;;;;;;;;;;4933562;29;1415;-73
2022/09/03 00:36:23;;;;;;;;;;;;;;;;;;4933630;29;1065;-74
2022/09/03 00:38:50;;;;;;;;;;;;;;;;;;4933830;28;1123;-75
2022/09/03 00:41:19;;;;;;;;;;;;;;;;;;4933147;29;1919;-72
2022/09/03 00:43:52;;;;;;;;;;;;;;;;;;4916553;29;1122;-73
2022/09/03 00:46:21;;;;;;;;;;;;;;;;;;4933677;28;988;-73
2022/09/03 00:48:52;;;;;;;;;;;;;;;;;;4933456;28;850;-73
2022/09/03 00:51:24;;;;;;;;;;;;;;;;;;4933136;29;1562;-73
2022/09/03 00:53:53;;;;;;;;;;;;;;;;;;4933166;29;1333;-73
2022/09/03 00:56:21;;;;;;;;;;;;;;;;;;4933263;29;1044;-74
2022/09/03 00:58:54;;;;;;;;;;;;;;;;;;4933151;29;1284;-74
2022/09/03 01:01:22;;;;;;;;;;;;;;;;;;4915875;29;1984;-74
2022/09/03 01:03:53;;;;;;;;;;;;;;;;;;4933195;29;1316;-74
2022/09/03 01:06:19;;;;;;;;;;;;;;;;;;4916236;29;1252;-74
2022/09/03 01:08:52;;;;;;;;;;;;;;;;;;4933120;29;887;-74
2022/09/03 01:11:21;;;;;;;;;;;;;;;;;;4915776;29;1125;-74
2022/09/03 01:13:50;;;;;;;;;;;;;;;;;;4933169;29;943;-74
2022/09/03 01:16:18;;;;;;;;;;;;;;;;;;4932752;28;1529;-74
2022/09/03 01:18:49;;;;;;;;;;;;;;;;;;4932367;29;1511;-74
2022/09/03 01:21:20;;;;;;;;;;;;;;;;;;4932769;29;1911;-74
2022/09/03 01:23:56;;;;;;;;;;;;;;;;;;4933100;29;1127;-74
2022/09/03 01:26:28;;;;;;;;;;;;;;;;;;4933199;28;965;-73
2022/09/03 01:28:58;;;;;;;;;;;;;;;;;;4932941;28;1092;-74
2022/09/03 01:31:26;;;;;;;;;;;;;;;;;;4932550;29;1072;-74
2022/09/03 01:33:55;;;;;;;;;;;;;;;;;;4915642;28;1336;-74
2022/09/03 01:36:23;;;;;;;;;;;;;;;;;;4933198;28;1135;-73
2022/09/03 01:38:50;;;;;;;;;;;;;;;;;;4932512;29;1068;-74
2022/09/03 01:44:06;;;;;;;;;;;;;;;;;;4915430;29;1433;-74
2022/09/03 01:46:33;;;;;;;;;;;;;;;;;;4915822;28;1250;-74
2022/09/03 01:49:01;;;;;;;;;;;;;;;;;;4932667;28;1131;-73
2022/09/03 01:51:27;;;;;;;;;;;;;;;;;;4932617;28;810;-73
2022/09/03 01:53:58;;;;;;;;;;;;;;;;;;4915413;28;1381;-73
2022/09/03 01:56:27;;;;;;;;;;;;;;;;;;4933033;28;1001;-73
2022/09/03 01:58:55;;;;;;;;;;;;;;;;;;4932594;28;1076;-73
2022/09/03 02:01:24;;;;;;;;;;;;;;;;;;4915134;29;1919;-72
2022/09/03 02:03:50;;;;;;;;;;;;;;;;;;4932234;29;1319;-71
2022/09/03 02:06:19;;;;;;;;;;;;;;;;;;4932128;29;831;-74
2022/09/03 02:08:45;;;;;;;;;;;;;;;;;;4914331;28;1061;-74
2022/09/03 02:11:12;;;;;;;;;;;;;;;;;;4932327;29;950;-71
2022/09/03 02:13:39;;;;;;;;;;;;;;;;;;4931959;29;1170;-74
2022/09/03 02:16:07;;;;;;;;;;;;;;;;;;4915488;28;1416;-74
2022/09/03 02:18:36;;;;;;;;;;;;;;;;;;4931980;29;1131;-77
2022/09/03 02:21:02;;;;;;;;;;;;;;;;;;4932133;29;1911;-74
2022/09/03 02:23:28;;;;;;;;;;;;;;;;;;4932227;29;965;-74
2022/09/03 02:25:55;;;;;;;;;;;;;;;;;;4931936;29;1317;-74
2022/09/03 02:28:21;;;;;;;;;;;;;;;;;;4932369;28;799;-73
2022/09/03 02:30:48;;;;;;;;;;;;;;;;;;4930966;29;1045;-73
2022/09/03 02:33:14;;;;;;;;;;;;;;;;;;4932021;28;956;-74
2022/09/03 02:35:42;;;;;;;;;;;;;;;;;;4932120;28;1306;-74
2022/09/03 02:38:09;;;;;;;;;;;;;;;;;;4915226;28;1731;-74
2022/09/03 02:40:35;;;;;;;;;;;;;;;;;;4931928;29;1981;-73
2022/09/03 02:43:01;;;;;;;;;;;;;;;;;;4914423;29;1205;-74
2022/09/03 02:45:29;;;;;;;;;;;;;;;;;;4932000;28;1324;-74
2022/09/03 02:47:56;;;;;;;;;;;;;;;;;;4931682;29;1128;-74
2022/09/03 02:50:22;;;;;;;;;;;;;;;;;;4932000;28;1056;-75
2022/09/03 02:52:50;;;;;;;;;;;;;;;;;;4931717;28;1068;-76
2022/09/03 02:55:16;;;;;;;;;;;;;;;;;;4931729;28;1380;-73
2022/09/03 02:57:42;;;;;;;;;;;;;;;;;;4931100;28;1798;-75
2022/09/03 03:00:09;;;;;;;;;;;;;;;;;;4982705;28;1171;-73
2022/09/03 03:02:35;;;;;;;;;;;;;;;;;;4942312;29;1977;-74
2022/09/03 03:05:01;;;;;;;;;;;;;;;;;;4931536;29;1393;-75
2022/09/03 03:07:27;;;;;;;;;;;;;;;;;;4931224;29;1585;-74
2022/09/03 03:09:55;;;;;;;;;;;;;;;;;;4931594;29;807;-76
2022/09/03 03:12:21;;;;;;;;;;;;;;;;;;4931287;29;946;-73
2022/09/03 03:14:47;;;;;;;;;;;;;;;;;;4931211;29;1412;-74
2022/09/03 03:17:14;;;;;;;;;;;;;;;;;;4914583;29;1314;-74
2022/09/03 03:19:40;;;;;;;;;;;;;;;;;;4914185;29;1224;-74
2022/09/03 03:22:06;;;;;;;;;;;;;;;;;;4914087;29;1903;-74
2022/09/03 03:24:32;;;;;;;;;;;;;;;;;;4931403;29;1307;-73
2022/09/03 03:27:00;;;;;;;;;;;;;;;;;;4931608;29;1069;-74
2022/09/03 03:29:26;;;;;;;;;;;;;;;;;;4914527;29;898;-74
2022/09/03 03:31:53;;;;;;;;;;;;;;;;;;4930891;29;1068;-75
2022/09/03 03:34:19;;;;;;;;;;;;;;;;;;4914285;29;1320;-75
2022/09/03 03:36:45;;;;;;;;;;;;;;;;;;4931085;29;1497;-74
2022/09/03 03:39:11;;;;;;;;;;;;;;;;;;4931552;29;1001;-74
2022/09/03 03:41:38;;;;;;;;;;;;;;;;;;4930715;29;1970;-73
2022/09/03 03:44:06;;;;;;;;;;;;;;;;;;4934618;29;1507;-74
2022/09/03 03:46:32;;;;;;;;;;;;;;;;;;4934643;29;1072;-73
2022/09/03 03:48:59;;;;;;;;;;;;;;;;;;4934578;28;1067;-74
2022/09/03 03:51:26;;;;;;;;;;;;;;;;;;4934291;29;1159;-74
2022/09/03 03:53:53;;;;;;;;;;;;;;;;;;4967878;22;3740;-73
2022/09/03 03:56:19;;;;;;;;;;;;;;;;;;4991994;28;1213;-73
2022/09/03 03:58:47;;;;;;;;;;;;;;;;;;4992367;28;1072;-74
2022/09/03 04:01:15;;;;;;;;;;;;;;;;;;4991907;28;1915;-73
2022/09/03 04:03:41;;;;;;;;;;;;;;;;;;4992461;28;1332;-74
2022/09/03 04:06:08;;;;;;;;;;;;;;;;;;4992476;28;854;-74
2022/09/03 04:08:34;;;;;;;;;;;;;;;;;;4992061;28;934;-73
2022/09/03 04:11:01;;;;;;;;;;;;;;;;;;4992115;28;972;-74
2022/09/03 04:13:28;;;;;;;;;;;;;;;;;;4991507;28;1340;-74
2022/09/03 04:15:59;;;;;;;;;;;;;;;;;;4992147;28;1123;-74
2022/09/03 04:18:27;;;;;;;;;;;;;;;;;;4991776;28;1048;-74
2022/09/03 04:20:54;;;;;;;;;;;;;;;;;;4991839;28;1977;-73
2022/09/03 04:23:20;;;;;;;;;;;;;;;;;;4991609;28;1334;-74
2022/09/03 04:25:51;;;;;;;;;;;;;;;;;;4974287;28;1467;-74
2022/09/03 04:28:17;;;;;;;;;;;;;;;;;;4991735;28;1059;-74
2022/09/03 04:30:43;;;;;;;;;;;;;;;;;;4991765;28;791;-74
2022/09/03 04:33:10;;;;;;;;;;;;;;;;;;4991244;28;1325;-73
2022/09/03 04:35:37;;;;;;;;;;;;;;;;;;4991715;28;693;-74
2022/09/03 04:38:03;;;;;;;;;;;;;;;;;;4991646;28;925;-74
2022/09/03 04:40:30;;;;;;;;;;;;;;;;;;4991629;28;794;-74
2022/09/03 04:42:56;;;;;;;;;;;;;;;;;;4991219;28;1985;-73
2022/09/03 04:45:22;;;;;;;;;;;;;;;;;;4991876;28;1008;-74
2022/09/03 04:47:55;;;;;;;;;;;;;;;;;;5001076;28;1068;-74
2022/09/03 04:50:22;;;;;;;;;;;;;;;;;;5000571;28;1155;-73
2022/09/03 04:53:01;;;;;;;;;;;;;;;;;;4992044;28;1343;-73
2022/09/03 04:55:27;;;;;;;;;;;;;;;;;;4990091;28;1087;-73
2022/09/03 04:57:53;;;;;;;;;;;;;;;;;;4991347;28;1123;-73
2022/09/03 05:00:19;;;;;;;;;;;;;;;;;;4991246;28;1056;-73
2022/09/03 05:02:48;;;;;;;;;;;;;;;;;;4990843;28;1980;-75
2022/09/03 05:05:14;;;;;;;;;;;;;;;;;;4991208;28;1290;-74
2022/09/03 05:07:40;;;;;;;;;;;;;;;;;;4991344;28;1067;-74
2022/09/03 05:10:11;;;;;;;;;;;;;;;;;;4991190;28;1056;-73
2022/09/03 05:12:37;;;;;;;;;;;;;;;;;;4990642;28;1068;-73
2022/09/03 05:15:04;;;;;;;;;;;;;;;;;;4973261;28;1480;-73
2022/09/03 05:17:30;;;;;;;;;;;;;;;;;;4990978;28;912;-72
2022/09/03 05:19:56;;;;;;;;;;;;;;;;;;4990935;28;1107;-73
2022/09/03 05:22:23;;;;;;;;;;;;;;;;;;4990418;28;1914;-73
2022/09/03 05:24:49;;;;;;;;;;;;;;;;;;4973291;28;1353;-75
2022/09/03 05:27:17;;;;;;;;;;;;;;;;;;4973312;28;1226;-74
2022/09/03 05:29:43;;;;;;;;;;;;;;;;;;4990782;28;821;-74
2022/09/03 05:32:09;;;;;;;;;;;;;;;;;;4990280;28;1150;-73
2022/09/03 05:34:35;;;;;;;;;;;;;;;;;;4990733;28;1382;-74
2022/09/03 05:37:01;;;;;;;;;;;;;;;;;;4990685;28;1262;-74
2022/09/03 05:39:28;;;;;;;;;;;;;;;;;;4990575;28;886;-74
2022/09/03 05:41:54;;;;;;;;;;;;;;;;;;4990220;28;1980;-74
2022/09/03 05:44:22;;;;;;;;;;;;;;;;;;4990582;28;1288;-74
2022/09/03 05:46:48;;;;;;;;;;;;;;;;;;4990689;28;1027;-74
2022/09/03 05:49:14;;;;;;;;;;;;;;;;;;4990682;28;733;-74
2022/09/03 05:51:41;;;;;;;;;;;;;;;;;;4990410;28;1189;-74
2022/09/03 05:54:08;;;;;;;;;;;;;;;;;;4990198;28;1337;-74
2022/09/03 05:56:35;;;;;;;;;;;;;;;;;;4990316;28;1181;-74
2022/09/03 05:59:04;;;;;;;;;;;;;;;;;;4990291;28;964;-74
2022/09/03 06:01:32;;;;;;;;;;;;;;;;;;4989626;28;1911;-74
2022/09/03 06:03:59;;;;;;;;;;;;;;;;;;4972879;28;1297;-73
2022/09/03 06:06:26;;;;;;;;;;;;;;;;;;4989934;28;787;-74
2022/09/03 06:08:52;;;;;;;;;;;;;;;;;;4990215;28;1064;-74
2022/09/03 06:11:18;;;;;;;;;;;;;;;;;;4972257;28;1243;-74
2022/09/03 06:13:44;;;;;;;;;;;;;;;;;;4989930;28;1370;-74
2022/09/03 06:16:10;;;;;;;;;;;;;;;;;;4990295;28;1130;-74
2022/09/03 06:18:38;;;;;;;;;;;;;;;;;;4989837;28;889;-73
2022/09/03 06:21:05;;;;;;;;;;;;;;;;;;4989939;28;1064;-74
2022/09/03 06:23:32;;;;;;;;;;;;;;;;;;4989416;28;1978;-74
2022/09/03 06:26:01;;;;;;;;;;;;;;;;;;4990109;28;802;-74
2022/09/03 06:28:27;;;;;;;;;;;;;;;;;;4989715;28;1135;-75
2022/09/03 06:30:54;;;;;;;;;;;;;;;;;;4989641;28;1051;-73
2022/09/03 06:33:20;;;;;;;;;;;;;;;;;;4989255;28;1261;-74
2022/09/03 06:35:48;;;;;;;;;;;;;;;;;;4989804;28;953;-72
2022/09/03 06:38:14;;;;;;;;;;;;;;;;;;4989686;28;949;-74
2022/09/03 06:40:40;;;;;;;;;;;;;;;;;;4989545;28;1084;-73
2022/09/03 06:43:07;;;;;;;;;;;;;;;;;;4971779;28;1915;-74
2022/09/03 06:45:33;;;;;;;;;;;;;;;;;;4972285;28;1107;-73
2022/09/03 06:47:59;;;;;;;;;;;;;;;;;;4995736;28;822;-73
2022/09/03 06:50:25;;;;;;;;;;;;;;;;;;4989415;28;1146;-74
2022/09/03 06:52:53;;;;;;;;;;;;;;;;;;4971868;28;1163;-73
2022/09/03 06:55:20;;;;;;;;;;;;;;;;;;4989742;28;1347;-74
2022/09/03 06:57:46;;;;;;;;;;;;;;;;;;4989842;28;1086;-74
2022/09/03 07:00:13;;;;;;;;;;;;;;;;;;4989716;28;1067;-74
2022/09/03 07:02:40;;;;;;;;;;;;;;;;;;4994735;28;2217;-74
2022/09/03 07:05:06;;;;;;;;;;;;;;;;;;4971742;28;1514;-73
2022/09/03 07:07:33;;;;;;;;;;;;;;;;;;4989614;28;1241;-74
2022/09/03 07:10:00;;;;;;;;;;;;;;;;;;4989584;28;825;-74
2022/09/03 07:12:26;;;;;;;;;;;;;;;;;;4988861;28;941;-74
2022/09/03 07:14:53;;;;;;;;;;;;;;;;;;4989214;28;1418;-74
2022/09/03 07:17:19;;;;;;;;;;;;;;;;;;4988384;28;961;-74
2022/09/03 07:19:45;;;;;;;;;;;;;;;;;;4971494;28;1532;-74
2022/09/03 07:22:11;;;;;;;;;;;;;;;;;;4971206;28;1974;-74
2022/09/03 07:24:38;;;;;;;;;;;;;;;;;;4971731;28;1329;-74
2022/09/03 07:27:07;;;;;;;;;;;;;;;;;;4989148;28;1021;-74
2022/09/03 07:29:33;;;;;;;;;;;;;;;;;;4989045;28;1071;-74
2022/09/03 07:31:59;;;;;;;;;;;;;;;;;;4988861;28;1115;-74
2022/09/03 07:34:25;;;;;;;;;;;;;;;;;;4988791;28;1405;-74
2022/09/03 07:36:52;;;;;;;;;;;;;;;;;;4989016;28;1053;-74
2022/09/03 07:39:18;;;;;;;;;;;;;;;;;;4989033;28;1096;-73
2022/09/03 07:41:45;;;;;;;;;;;;;;;;;;4970844;28;1979;-74
2022/09/03 07:44:14;;;;;;;;;;;;;;;;;;4988818;28;1416;-74
2022/09/03 07:46:40;;;;;;;;;;;;;;;;;;4988873;28;1067;-74
2022/09/03 07:49:06;;;;;;;;;;;;;;;;;;4988945;28;1112;-74
2022/09/03 07:51:34;;;;;;;;;;;;;;;;;;4988353;28;1166;-74
2022/09/03 07:54:02;;;;;;;;;;;;;;;;;;4990066;28;1313;-74
2022/09/03 07:56:29;;;;;;;;;;;;;;;;;;4992259;28;1033;-73
2022/09/03 07:58:56;;;;;;;;;;;;;;;;;;4990888;28;1163;-74
2022/09/03 08:01:24;;;;;;;;;;;;;;;;;;4988390;28;1068;-75
2022/09/03 08:03:51;;;;;;;;;;;;;;;;;;4988479;28;1922;-74
2022/09/03 08:06:18;;;;;;;;;;;;;;;;;;4988595;28;917;-74
2022/09/03 08:08:44;;;;;;;;;;;;;;;;;;4988631;28;961;-74
2022/09/03 08:11:11;;;;;;;;;;;;;;;;;;4988312;28;1008;-75
2022/09/03 08:13:38;;;;;;;;;;;;;;;;;;4970878;28;1532;-74
2022/09/03 08:16:04;;;;;;;;;;;;;;;;;;4971146;28;1115;-74
2022/09/03 08:18:36;;;;;;;;;;;;;;;;;;4988310;28;918;-74
2022/09/03 08:21:02;;;;;;;;;;;;;;;;;;4988351;28;1531;-75
2022/09/03 08:23:29;;;;;;;;;;;;;;;;;;5003354;28;1978;-75
2022/09/03 08:25:57;;;;;;;;;;;;;;;;;;5008112;28;1091;-75
2022/09/03 08:28:24;;;;;;;;;;;;;;;;;;5007748;28;822;-75
2022/09/03 08:30:50;;;;;;;;;;;;;;;;;;5011097;28;1060;-75
2022/09/03 08:33:35;;;;;;;;;;;;;;;;;;5010799;28;1306;-75
2022/09/03 08:36:03;;;;;;;;;;;;;;;;;;5011298;28;1009;-75
2022/09/03 08:38:30;;;;;;;;;;;;;;;;;;5011160;28;878;-75
2022/09/03 08:41:02;;;;;;;;;;;;;;;;;;5010939;28;1068;-75
2022/09/03 08:43:28;;;;;;;;;;;;;;;;;;5010719;28;1914;-75
2022/09/03 08:45:55;;;;;;;;;;;;;;;;;;5011185;28;1139;-75
2022/09/03 08:48:21;;;;;;;;;;;;;;;;;;5011009;28;1063;-75
2022/09/03 08:50:50;;;;;;;;;;;;;;;;;;5006579;28;1176;-75
2022/09/03 08:53:18;;;;;;;;;;;;;;;;;;4990896;28;1400;-75
2022/09/03 08:55:47;;;;;;;;;;;;;;;;;;4991455;28;1096;-75
2022/09/03 08:58:14;;;;;;;;;;;;;;;;;;4991175;28;936;-75
2022/09/03 09:00:42;;;;;;;;;;;;;;;;;;4991406;28;1067;-75
2022/09/03 09:03:16;;;;;;;;;;;;;;;;;;4990614;28;1910;-75
2022/09/03 09:05:44;;;;;;;;;;;;;;;;;;4991257;28;1000;-75
2022/09/03 09:08:12;;;;;;;;;;;;;;;;;;4991171;28;933;-75
2022/09/03 09:10:43;;;;;;;;;;;;;;;;;;4991076;28;810;-75
2022/09/03 09:13:12;;;;;;;;;;;;;;;;;;4973371;28;1318;-75
2022/09/03 09:15:40;;;;;;;;;;;;;;;;;;4991097;28;874;-75
2022/09/03 09:18:09;;;;;;;;;;;;;;;;;;4990685;28;1504;-76
2022/09/03 09:20:36;;;;;;;;;;;;;;;;;;4991077;28;1063;-75
2022/09/03 09:23:05;;;;;;;;;;;;;;;;;;4990623;28;1914;-75
2022/09/03 09:25:31;;;;;;;;;;;;;;;;;;4973587;28;1101;-75
2022/09/03 09:28:00;;;;;;;;;;;;;;;;;;4990598;28;1059;-73
2022/09/03 09:30:27;;;;;;;;;;;;;;;;;;4973457;28;1151;-75
2022/09/03 09:32:54;;;;;;;;;;;;;;;;;;4973100;28;1474;-74
2022/09/03 09:35:21;;;;;;;;;;;;;;;;;;4973515;28;1415;-76
2022/09/03 09:37:48;;;;;;;;;;;;;;;;;;4990811;28;1139;-75
2022/09/03 09:40:22;;;;;;;;;;;;;;;;;;4990181;28;864;-74
2022/09/03 09:42:49;;;;;;;;;;;;;;;;;;4990422;28;1907;-76
2022/09/03 09:45:16;;;;;;;;;;;;;;;;;;4990452;28;1329;-75
2022/09/03 09:47:43;;;;;;;;;;;;;;;;;;4990527;28;1055;-75
2022/09/03 09:50:15;;;;;;;;;;;;;;;;;;4990343;28;795;-75
2022/09/03 09:52:43;;;;;;;;;;;;;;;;;;4990003;28;1410;-75
2022/09/03 09:55:10;;;;;;;;;;;;;;;;;;4990630;28;1309;-75
2022/09/03 09:57:38;;;;;;;;;;;;;;;;;;4990230;28;791;-75
2022/09/03 10:00:08;;;;;;;;;;;;;;;;;;5074178;22;1998;-76
2022/09/03 10:02:41;;;;;;;;;;;;;;;;;;5091624;28;2017;-75
2022/09/03 10:05:14;;;;;;;;;;;;;;;;;;5092888;28;1100;-77
2022/09/03 10:07:40;;;;;;;;;;;;;;;;;;5092613;28;988;-76
2022/09/03 10:10:07;;;;;;;;;;;;;;;;;;5091483;28;1403;-76
2022/09/03 10:12:35;;;;;;;;;;;;;;;;;;5092825;28;988;-77
2022/09/03 10:15:03;;;;;;;;;;;;;;;;;;5091673;28;1185;-76
2022/09/03 10:17:31;;;;;;;;;;;;;;;;;;5091440;28;1396;-76
2022/09/03 10:22:45;;;;;;;;;;;;;;;;;;5092102;28;1914;-76
2022/09/03 10:25:12;;;;;;;;;;;;;;;;;;5092384;28;909;-76
2022/09/03 10:27:38;;;;;;;;;;;;;;;;;;5091124;28;1272;-76
2022/09/03 10:30:06;;;;;;;;;;;;;;;;;;5092891;28;1308;-76
2022/09/03 10:32:34;;;;;;;;;;;;;;;;;;5092366;28;1083;-77
2022/09/03 10:35:09;;;;;;;;;;;;;;;;;;5091225;28;1187;-76
2022/09/03 10:37:38;;;;;;;;;;;;;;;;;;5092549;28;783;-77
2022/09/03 10:40:06;;;;;;;;;;;;;;;;;;5092212;28;1306;-77
2022/09/03 10:42:36;;;;;;;;;;;;;;;;;;5091856;28;928;-76
2022/09/03 10:45:03;;;;;;;;;;;;;;;;;;5092210;28;1922;-77
2022/09/03 10:47:34;;;;;;;;;;;;;;;;;;5090847;28;1352;-77
2022/09/03 10:50:01;;;;;;;;;;;;;;;;;;5092400;28;1385;-76
2022/09/03 10:52:30;;;;;;;;;;;;;;;;;;5091931;28;1190;-76
2022/09/03 10:55:01;;;;;;;;;;;;;;;;;;5091953;28;1079;-75
2022/09/03 10:57:30;;;;;;;;;;;;;;;;;;5091824;28;1095;-76
2022/09/03 11:00:01;;;;;;;;;;;;;;;;;;5073693;28;1328;-76
2022/09/03 11:02:47;;;;;;;;;;;;;;;;;;5073273;28;1221;-77
2022/09/03 11:05:15;;;;;;;;;;;;;;;;;;5091868;28;861;-76
2022/09/03 11:07:43;;;;;;;;;;;;;;;;;;5091660;28;787;-77
2022/09/03 11:10:11;;;;;;;;;;;;;;;;;;5091639;28;1415;-78
2022/09/03 11:12:38;;;;;;;;;;;;;;;;;;5091440;28;1075;-79
2022/09/03 11:15:06;;;;;;;;;;;;;;;;;;5091605;28;864;-78
2022/09/03 11:17:34;;;;;;;;;;;;;;;;;;5090222;28;1266;-77
2022/09/03 11:20:03;;;;;;;;;;;;;;;;;;5091429;28;1338;-77
2022/09/03 11:22:29;;;;;;;;;;;;;;;;;;5090963;28;1578;-78
2022/09/03 11:24:58;;;;;;;;;;;;;;;;;;5091947;28;1917;-76
2022/09/03 11:27:29;;;;;;;;;;;;;;;;;;5092085;28;976;-75
2022/09/03 11:29:56;;;;;;;;;;;;;;;;;;5092032;28;1316;-77
2022/09/03 11:32:23;;;;;;;;;;;;;;;;;;5091098;28;1107;-77
2022/09/03 11:34:50;;;;;;;;;;;;;;;;;;5091593;28;905;-76
2022/09/03 11:37:18;;;;;;;;;;;;;;;;;;5091444;28;953;-77
2022/09/03 11:39:44;;;;;;;;;;;;;;;;;;5091403;28;1400;-76
2022/09/03 11:42:12;;;;;;;;;;;;;;;;;;5091122;28;1075;-76
2022/09/03 11:44:38;;;;;;;;;;;;;;;;;;5091162;28;1981;-77
2022/09/03 11:47:15;;;;;;;;;;;;;;;;;;5091307;28;1079;-77
2022/09/03 11:49:44;;;;;;;;;;;;;;;;;;5091095;28;1411;-77
2022/09/03 11:52:11;;;;;;;;;;;;;;;;;;5091075;28;1209;-76
2022/09/03 11:54:43;;;;;;;;;;;;;;;;;;5091208;28;1131;-76
2022/09/03 11:57:10;;;;;;;;;;;;;;;;;;5091353;28;936;-77
2022/09/03 11:59:38;;;;;;;;;;;;;;;;;;5091297;28;1305;-76
2022/09/03 12:02:05;;;;;;;;;;;;;;;;;;5090874;28;787;-76
2022/09/03 12:04:45;;;;;;;;;;;;;;;;;;5076197;28;1910;-77
2022/09/03 12:07:15;;;;;;;;;;;;;;;;;;5095107;28;1067;-76
2022/09/03 12:09:53;;;;;;;;;;;;;;;;;;5095067;28;1318;-77
2022/09/03 12:12:26;;;;;;;;;;;;;;;;;;5094634;28;1020;-76
2022/09/03 12:14:56;;;;;;;;;;;;;;;;;;5095046;28;1134;-76
2022/09/03 12:17:24;;;;;;;;;;;;;;;;;;5094878;28;1060;-78
2022/09/03 12:19:51;;;;;;;;;;;;;;;;;;5076447;28;1612;-76
2022/09/03 12:22:19;;;;;;;;;;;;;;;;;;5076341;28;1125;-77
2022/09/03 12:24:45;;;;;;;;;;;;;;;;;;5076390;28;1906;-75
2022/09/03 12:27:12;;;;;;;;;;;;;;;;;;5076670;28;1388;-75
2022/09/03 12:29:39;;;;;;;;;;;;;;;;;;5094779;28;1482;-75
2022/09/03 12:32:07;;;;;;;;;;;;;;;;;;5094297;28;1071;-76
2022/09/03 12:34:34;;;;;;;;;;;;;;;;;;5094630;28;1082;-75
2022/09/03 12:37:00;;;;;;;;;;;;;;;;;;5094540;28;830;-76
2022/09/03 12:39:26;;;;;;;;;;;;;;;;;;5094382;28;1332;-76
2022/09/03 12:41:55;;;;;;;;;;;;;;;;;;5075856;28;1226;-77
2022/09/03 12:44:25;;;;;;;;;;;;;;;;;;5094418;28;1977;-76
2022/09/03 12:46:59;;;;;;;;;;;;;;;;;;5094203;28;1370;-77
2022/09/03 12:49:27;;;;;;;;;;;;;;;;;;5094120;28;1327;-76
2022/09/03 12:51:57;;;;;;;;;;;;;;;;;;5093780;28;1181;-77
2022/09/03 12:54:24;;;;;;;;;;;;;;;;;;5094153;28;1011;-76
2022/09/03 12:56:52;;;;;;;;;;;;;;;;;;5094437;28;1122;-77
2022/09/03 12:59:18;;;;;;;;;;;;;;;;;;5075944;28;1357;-76
2022/09/03 13:01:45;;;;;;;;;;;;;;;;;;5093535;28;944;-77
2022/09/03 13:04:14;;;;;;;;;;;;;;;;;;5094135;28;1914;-77
2022/09/03 13:06:45;;;;;;;;;;;;;;;;;;5094201;28;961;-76
2022/09/03 13:09:11;;;;;;;;;;;;;;;;;;5076063;28;1350;-77
2022/09/03 13:11:38;;;;;;;;;;;;;;;;;;5093356;28;1059;-76
2022/09/03 13:14:05;;;;;;;;;;;;;;;;;;5072564;28;1472;-76
2022/09/03 13:16:49;;;;;;;;;;;;;;;;;;5092537;28;2061;-77
2022/09/03 13:19:16;;;;;;;;;;;;;;;;;;5113146;28;1494;-76
2022/09/03 13:21:45;;;;;;;;;;;;;;;;;;5113803;28;833;-76
2022/09/03 13:24:18;;;;;;;;;;;;;;;;;;5114358;28;1926;-77
2022/09/03 13:26:48;;;;;;;;;;;;;;;;;;5114047;28;1119;-76
2022/09/03 13:29:18;;;;;;;;;;;;;;;;;;5113781;28;1433;-78
2022/09/03 13:31:45;;;;;;;;;;;;;;;;;;5113582;28;1257;-76
2022/09/03 13:34:14;;;;;;;;;;;;;;;;;;5114091;28;1016;-76
2022/09/03 13:36:41;;;;;;;;;;;;;;;;;;5114347;28;944;-75
2022/09/03 13:39:10;;;;;;;;;;;;;;;;;;5114147;28;1402;-77
2022/09/03 13:41:38;;;;;;;;;;;;;;;;;;5095207;28;1036;-76
2022/09/03 13:44:07;;;;;;;;;;;;;;;;;;5113816;28;1971;-76
2022/09/03 13:46:35;;;;;;;;;;;;;;;;;;5095698;28;807;-78
2022/09/03 13:51:56;;;;;;;;;;;;;;;;;;5081130;28;1238;-76
2022/09/03 13:54:24;;;;;;;;;;;;;;;;;;5093077;28;1071;-76
2022/09/03 13:56:54;;;;;;;;;;;;;;;;;;5093036;28;1008;-76
2022/09/03 13:59:23;;;;;;;;;;;;;;;;;;5092633;28;1288;-76
2022/09/03 14:01:58;;;;;;;;;;;;;;;;;;5092462;28;952;-76
2022/09/03 14:04:25;;;;;;;;;;;;;;;;;;5092839;28;1967;-78
2022/09/03 14:06:54;;;;;;;;;;;;;;;;;;5092790;28;1067;-77
2022/09/03 14:09:23;;;;;;;;;;;;;;;;;;5092872;28;1325;-76
2022/09/03 14:11:53;;;;;;;;;;;;;;;;;;5092182;28;1052;-77
2022/09/03 14:14:20;;;;;;;;;;;;;;;;;;5092787;28;1103;-76
2022/09/03 14:16:48;;;;;;;;;;;;;;;;;;5074258;28;1203;-76
2022/09/03 14:19:15;;;;;;;;;;;;;;;;;;5092899;28;1415;-76
2022/09/03 14:21:42;;;;;;;;;;;;;;;;;;5092177;28;1068;-76
2022/09/03 14:24:10;;;;;;;;;;;;;;;;;;5074095;28;1906;-75
2022/09/03 14:26:37;;;;;;;;;;;;;;;;;;5091493;28;856;-78
2022/09/03 14:29:05;;;;;;;;;;;;;;;;;;5074092;28;1322;-75
2022/09/03 14:31:41;;;;;;;;;;;;;;;;;;5092057;28;1123;-77
2022/09/03 14:34:08;;;;;;;;;;;;;;;;;;5074258;28;1329;-77
2022/09/03 14:36:35;;;;;;;;;;;;;;;;;;5074549;28;901;-76
2022/09/03 14:39:03;;;;;;;;;;;;;;;;;;5092629;28;1400;-76
2022/09/03 14:41:36;;;;;;;;;;;;;;;;;;5092391;28;1068;-76
2022/09/03 14:44:14;;;;;;;;;;;;;;;;;;5092466;28;1918;-76
2022/09/03 14:46:43;;;;;;;;;;;;;;;;;;5092081;28;1015;-77
2022/09/03 14:49:13;;;;;;;;;;;;;;;;;;5092087;28;1314;-76
2022/09/03 14:51:44;;;;;;;;;;;;;;;;;;5091551;28;1162;-77
2022/09/03 14:54:24;;;;;;;;;;;;;;;;;;5092363;28;949;-76
2022/09/03 14:56:53;;;;;;;;;;;;;;;;;;5091898;28;940;-76
2022/09/03 14:59:37;;;;;;;;;;;;;;;;;;5091772;28;1491;-76
2022/09/03 15:02:08;;;;;;;;;;;;;;;;;;5091261;28;1406;-76
2022/09/03 15:04:45;;;;;;;;;;;;;;;;;;5091654;28;1973;-75
2022/09/03 15:07:16;;;;;;;;;;;;;;;;;;5091990;28;1071;-77
2022/09/03 15:09:45;;;;;;;;;;;;;;;;;;5091534;28;1329;-76
2022/09/03 15:12:16;;;;;;;;;;;;;;;;;;5073577;28;1426;-76
2022/09/03 15:14:46;;;;;;;;;;;;;;;;;;5091724;28;933;-76
2022/09/03 15:17:24;;;;;;;;;;;;;;;;;;5091624;28;997;-76
2022/09/03 15:19:56;;;;;;;;;;;;;;;;;;5073421;28;1361;-78
2022/09/03 15:22:27;;;;;;;;;;;;;;;;;;5089828;28;2309;-76
2022/09/03 15:24:54;;;;;;;;;;;;;;;;;;5089254;28;1981;-76
2022/09/03 15:27:28;;;;;;;;;;;;;;;;;;5091372;28;1133;-76
2022/09/03 15:29:57;;;;;;;;;;;;;;;;;;5091449;28;1306;-76
2022/09/03 15:32:32;;;;;;;;;;;;;;;;;;5091265;28;1100;-78
2022/09/03 15:35:04;;;;;;;;;;;;;;;;;;5090291;28;1119;-75
2022/09/03 15:37:32;;;;;;;;;;;;;;;;;;5091517;28;1126;-76
2022/09/03 15:39:59;;;;;;;;;;;;;;;;;;5077337;28;1330;-76
2022/09/03 15:42:27;;;;;;;;;;;;;;;;;;5095283;28;572;-76
2022/09/03 15:44:54;;;;;;;;;;;;;;;;;;5095464;28;1918;-75
2022/09/03 15:47:30;;;;;;;;;;;;;;;;;;5095415;28;845;-75
2022/09/03 15:49:58;;;;;;;;;;;;;;;;;;5094025;28;1415;-76
2022/09/03 15:52:33;;;;;;;;;;;;;;;;;;5094924;28;1229;-77
2022/09/03 15:55:02;;;;;;;;;;;;;;;;;;5077293;28;997;-76
2022/09/03 15:57:29;;;;;;;;;;;;;;;;;;5095243;28;846;-77
2022/09/03 16:02:34;;;;;;;;;;;;;;;;;;4950531;28;1518;-76
2022/09/03 16:05:05;;;;;;;;;;;;;;;;;;4953325;29;1984;-76
2022/09/03 16:07:39;;;;;;;;;;;;;;;;;;4952133;29;1245;-77
2022/09/03 16:10:07;;;;;;;;;;;;;;;;;;4936620;28;1428;-76
2022/09/03 16:12:34;;;;;;;;;;;;;;;;;;4953535;29;1065;-75
2022/09/03 16:15:02;;;;;;;;;;;;;;;;;;4953309;29;1080;-74
2022/09/03 16:17:29;;;;;;;;;;;;;;;;;;4953429;29;803;-76
2022/09/03 16:19:58;;;;;;;;;;;;;;;;;;4953440;28;1309;-76
2022/09/03 16:22:26;;;;;;;;;;;;;;;;;;4953224;29;850;-73
2022/09/03 16:24:53;;;;;;;;;;;;;;;;;;4953444;28;1910;-75
2022/09/03 16:27:20;;;;;;;;;;;;;;;;;;4953004;29;814;-75
2022/09/03 16:29:54;;;;;;;;;;;;;;;;;;4953153;29;1056;-75
2022/09/03 16:32:25;;;;;;;;;;;;;;;;;;4952495;29;803;-76
2022/09/03 16:34:54;;;;;;;;;;;;;;;;;;4953155;29;1036;-76
2022/09/03 16:37:24;;;;;;;;;;;;;;;;;;4935735;29;1256;-75
2022/09/03 16:39:52;;;;;;;;;;;;;;;;;;4953064;29;921;-76
2022/09/03 16:42:21;;;;;;;;;;;;;;;;;;4952450;29;1143;-75
2022/09/03 16:44:51;;;;;;;;;;;;;;;;;;4952806;29;1922;-76
2022/09/03 16:47:20;;;;;;;;;;;;;;;;;;4952952;29;966;-75
2022/09/03 16:49:49;;;;;;;;;;;;;;;;;;4952075;28;929;-75
2022/09/03 16:52:17;;;;;;;;;;;;;;;;;;4952320;28;1302;-75
2022/09/03 16:54:52;;;;;;;;;;;;;;;;;;4952989;29;1104;-75
2022/09/03 16:57:20;;;;;;;;;;;;;;;;;;4935278;29;1299;-75
2022/09/03 16:59:56;;;;;;;;;;;;;;;;;;4952804;29;1072;-75
2022/09/03 17:02:27;;;;;;;;;;;;;;;;;;4952371;29;1127;-76
2022/09/03 17:05:00;;;;;;;;;;;;;;;;;;4935535;29;1980;-76
2022/09/03 17:07:29;;;;;;;;;;;;;;;;;;4952741;29;815;-76
2022/09/03 17:09:59;;;;;;;;;;;;;;;;;;4952548;28;1388;-74
2022/09/03 17:12:26;;;;;;;;;;;;;;;;;;4952041;29;1068;-75
2022/09/03 17:15:04;;;;;;;;;;;;;;;;;;4952464;29;1112;-75
2022/09/03 17:17:42;;;;;;;;;;;;;;;;;;4935204;29;1128;-75
2022/09/03 17:20:09;;;;;;;;;;;;;;;;;;4952320;28;1326;-75
2022/09/03 17:22:38;;;;;;;;;;;;;;;;;;4952046;29;1131;-75
2022/09/03 17:25:07;;;;;;;;;;;;;;;;;;4952200;29;1915;-75